Kahuku, Hawaii
Current Conditions -  °F | °C
As of 2:55 AM on Tuesday 21 Oct 2014 (Local Time) from PHHI Reporting Station
Few Clouds Few Clouds  
Wind Chill: 70°   Ceiling: Unl
Heat Index: 70°   Visibility: 7mi
Dew Point: 63°   Wind: 7mph
Humidity: 78%   Direction: NA
Pressure: 30.04"   Gusts: NA
Location:  21.67°N, 157.94°W
Report Text: PHHI 211255Z VRB06KT 7SM FEW040 21/17 A3004 RMK AO2A WND DATA ESTMD ALSTG/SLPNO ESTMD $
Loading
Personal Weather Stations






























Interactive Weather Map New forecast layout! Learn more

10-Day Weather Forecast

Advertisements
Track Severe Weather on mobile